Bangkok Bridge — 3FTZ8 — position and weather

sailwx.info

Track history (hours):
 
Tides and Currents Weather Stations Pressure Air Temp Water Temp Dewpoint Dewpoint Depression Visibility Wind Speed Wind Dir Waves Ship Positions

Bangkok Bridge

Last reported at 2017-Oct-14 12:51 UTC. Time now 2017-Oct-18 06:03 UTC.
Position N 34°50' E 139°52'.

Length 267 m; draft 11.1 m.

Type: Ship (hazmat cat A). MMSI: 353368000.

Date/timePositionNaut miles runAvg speedWind from/ knotsBaromVisibWave heightAir tempDewpointWater temp
2017-Oct-14 12:51N 34°50' E 139°52'1019.3
2017-Oct-14 12:21N 34°55' E 139°42'719.3
2017-Oct-14 12:00N 35°01' E 139°42'917.5
2017-Oct-14 11:30N 35°10' E 139°45'611.4
2017-Oct-14 11:00N 35°15' E 139°46'612.0
2017-Oct-14 10:30N 35°20' E 139°42'713.7
2017-Oct-14 10:00N 35°26' E 139°46'714.4
2017-Oct-14 09:30N 35°32' E 139°51'6 9.6
2017-Oct-14 08:55N 35°37' E 139°46'0 0.1
2017-Oct-14 06:19N 35°37' E 139°46'0 0.0
2017-Oct-14 03:13N 35°37' E 139°46'0 0.0
2017-Oct-14 01:01N 35°37' E 139°46'0 0.1
2017-Oct-13 22:04N 35°37' E 139°46'0 2.1
2017-Oct-13 21:58N 35°36' E 139°46'3 6.4
2017-Oct-13 21:30N 35°34' E 139°49'611.8
2017-Oct-13 20:59N 35°29' E 139°51'714.5
2017-Oct-13 20:30N 35°23' E 139°46'612.1
2017-Oct-13 20:00N 35°17' E 139°45'612.3
2017-Oct-13 19:30N 35°11' E 139°47'5 9.1
2017-Oct-13 19:00N 35°07' E 139°46'4 8.9
2017-Oct-13 18:30N 35°03' E 139°44'5 9.7
2017-Oct-13 18:00N 34°58' E 139°41'510.5
2017-Oct-13 17:30N 34°54' E 139°39'611.5
2017-Oct-13 17:00N 34°49' E 139°35'611.5
2017-Oct-13 16:30N 34°43' E 139°32'  
2017-Oct-10 23:50N 34°41' E 135°16'0 0.1
2017-Oct-10 23:20N 34°41' E 135°16'0 0.0
2017-Oct-10 22:56N 34°41' E 135°16'0 0.0
2017-Oct-10 22:26N 34°41' E 135°16'0 0.0
2017-Oct-10 21:56N 34°41' E 135°16'0 0.0
2017-Oct-10 21:26N 34°41' E 135°16'0 0.0
2017-Oct-10 20:50N 34°41' E 135°16'0 0.0
2017-Oct-10 20:26N 34°41' E 135°16'0 0.0
2017-Oct-10 19:56N 34°41' E 135°16'0 0.0
2017-Oct-10 19:20N 34°41' E 135°16'0 0.0
2017-Oct-10 18:56N 34°41' E 135°16'0 0.0
2017-Oct-10 18:14N 34°41' E 135°16'0 0.0
2017-Oct-10 17:56N 34°41' E 135°16'0 0.0
2017-Oct-10 17:26N 34°41' E 135°16'0 0.0
2017-Oct-10 16:56N 34°41' E 135°16'0 0.0
2017-Oct-10 16:26N 34°41' E 135°16'0 0.0
2017-Oct-10 15:56N 34°41' E 135°16'0 0.0
2017-Oct-10 15:20N 34°41' E 135°16'0 0.0
2017-Oct-10 14:56N 34°41' E 135°16'0 0.0
2017-Oct-10 13:56N 34°41' E 135°16'0 0.1
2017-Oct-10 13:26N 34°41' E 135°16'0 0.0
2017-Oct-10 12:50N 34°41' E 135°16'0 0.0
2017-Oct-10 12:26N 34°41' E 135°16'0 0.0
2017-Oct-10 11:56N 34°41' E 135°16'0 0.0
2017-Oct-10 11:26N 34°41' E 135°16'0 0.0
2017-Oct-10 10:56N 34°41' E 135°16'0 0.0
2017-Oct-10 10:26N 34°41' E 135°16'0 0.0
2017-Oct-10 09:56N 34°41' E 135°16'0 0.9
2017-Oct-10 09:31N 34°40' E 135°15'4 7.6
2017-Oct-10 09:00N 34°37' E 135°17'816.2
2017-Oct-10 08:30N 34°30' E 135°12'815.3
2017-Oct-10 08:00N 34°25' E 135°06'815.3
2017-Oct-10 07:29N 34°18' E 134°60'715.0
2017-Oct-10 07:00N 34°11' E 134°60'4 7.8
2017-Oct-10 06:30N 34°07' E 135°00'3 5.4
2017-Oct-10 05:59N 34°05' E 135°01'510.4
2017-Oct-10 05:30N 33°59' E 135°00'23315.1
2017-Oct-09 14:05N 34°49' E 139°36'220.2
2017-Oct-09 14:00N 34°50' E 139°37'1020.2
2017-Oct-09 13:30N 35°00' E 139°41'918.5
2017-Oct-09 13:00N 35°09' E 139°45'612.2
2017-Oct-09 12:30N 35°15' E 139°46'612.9
2017-Oct-09 12:00N 35°20' E 139°42'713.1
2017-Oct-09 11:30N 35°26' E 139°46'5 0.4
2017-Oct-08 21:17N 35°29' E 139°51'416.1
2017-Oct-08 21:00N 35°25' E 139°47'612.8
2017-Oct-08 20:30N 35°20' E 139°44'612.1
2017-Oct-08 20:00N 35°14' E 139°47'510.5
2017-Oct-08 19:30N 35°09' E 139°47'4 8.5
2017-Oct-08 19:00N 35°05' E 139°45'4 8.4
2017-Oct-08 18:30N 35°01' E 139°44'3 6.9
2017-Oct-08 18:00N 34°57' E 139°43'612.4
2017-Oct-08 17:29N 34°52' E 139°48'1014.8
2017-Oct-08 16:51N 34°51' E 139°59'617.1
2017-Oct-08 16:30N 34°52' E 140°06'  
Track history (hours):
 
Tides and Currents Weather Stations Pressure Air Temp Water Temp Dewpoint Dewpoint Depression Visibility Wind Speed Wind Dir Waves Ship Positions

Bangkok Bridge

Last reported at 2017-Oct-14 12:51 UTC. Time now 2017-Oct-18 06:03 UTC.
Position N 34°50' E 139°52'.

Length 267 m; draft 11.1 m.

Type: Ship (hazmat cat A). MMSI: 353368000.

Date/timePositionNaut miles runAvg speedWind from/ knotsBaromVisibWave heightAir tempDewpointWater temp
2017-Oct-14 12:51N 34°50' E 139°52'1019.3
2017-Oct-14 12:21N 34°55' E 139°42'719.3
2017-Oct-14 12:00N 35°01' E 139°42'917.5
2017-Oct-14 11:30N 35°10' E 139°45'611.4
2017-Oct-14 11:00N 35°15' E 139°46'612.0
2017-Oct-14 10:30N 35°20' E 139°42'713.7
2017-Oct-14 10:00N 35°26' E 139°46'714.4
2017-Oct-14 09:30N 35°32' E 139°51'6 9.6
2017-Oct-14 08:55N 35°37' E 139°46'0 0.1
2017-Oct-14 06:19N 35°37' E 139°46'0 0.0
2017-Oct-14 03:13N 35°37' E 139°46'0 0.0
2017-Oct-14 01:01N 35°37' E 139°46'0 0.1
2017-Oct-13 22:04N 35°37' E 139°46'0 2.1
2017-Oct-13 21:58N 35°36' E 139°46'3 6.4
2017-Oct-13 21:30N 35°34' E 139°49'611.8
2017-Oct-13 20:59N 35°29' E 139°51'714.5
2017-Oct-13 20:30N 35°23' E 139°46'612.1
2017-Oct-13 20:00N 35°17' E 139°45'612.3
2017-Oct-13 19:30N 35°11' E 139°47'5 9.1
2017-Oct-13 19:00N 35°07' E 139°46'4 8.9
2017-Oct-13 18:30N 35°03' E 139°44'5 9.7
2017-Oct-13 18:00N 34°58' E 139°41'510.5
2017-Oct-13 17:30N 34°54' E 139°39'611.5
2017-Oct-13 17:00N 34°49' E 139°35'611.5
2017-Oct-13 16:30N 34°43' E 139°32'  
2017-Oct-10 23:50N 34°41' E 135°16'0 0.1
2017-Oct-10 23:20N 34°41' E 135°16'0 0.0
2017-Oct-10 22:56N 34°41' E 135°16'0 0.0
2017-Oct-10 22:26N 34°41' E 135°16'0 0.0
2017-Oct-10 21:56N 34°41' E 135°16'0 0.0
2017-Oct-10 21:26N 34°41' E 135°16'0 0.0
2017-Oct-10 20:50N 34°41' E 135°16'0 0.0
2017-Oct-10 20:26N 34°41' E 135°16'0 0.0
2017-Oct-10 19:56N 34°41' E 135°16'0 0.0
2017-Oct-10 19:20N 34°41' E 135°16'0 0.0
2017-Oct-10 18:56N 34°41' E 135°16'0 0.0
2017-Oct-10 18:14N 34°41' E 135°16'0 0.0
2017-Oct-10 17:56N 34°41' E 135°16'0 0.0
2017-Oct-10 17:26N 34°41' E 135°16'0 0.0
2017-Oct-10 16:56N 34°41' E 135°16'0 0.0
2017-Oct-10 16:26N 34°41' E 135°16'0 0.0
2017-Oct-10 15:56N 34°41' E 135°16'0 0.0
2017-Oct-10 15:20N 34°41' E 135°16'0 0.0
2017-Oct-10 14:56N 34°41' E 135°16'0 0.0
2017-Oct-10 13:56N 34°41' E 135°16'0 0.1
2017-Oct-10 13:26N 34°41' E 135°16'0 0.0
2017-Oct-10 12:50N 34°41' E 135°16'0 0.0
2017-Oct-10 12:26N 34°41' E 135°16'0 0.0
2017-Oct-10 11:56N 34°41' E 135°16'0 0.0
2017-Oct-10 11:26N 34°41' E 135°16'0 0.0
2017-Oct-10 10:56N 34°41' E 135°16'0 0.0
2017-Oct-10 10:26N 34°41' E 135°16'0 0.0
2017-Oct-10 09:56N 34°41' E 135°16'0 0.9
2017-Oct-10 09:31N 34°40' E 135°15'4 7.6
2017-Oct-10 09:00N 34°37' E 135°17'816.2
2017-Oct-10 08:30N 34°30' E 135°12'815.3
2017-Oct-10 08:00N 34°25' E 135°06'815.3
2017-Oct-10 07:29N 34°18' E 134°60'715.0
2017-Oct-10 07:00N 34°11' E 134°60'4 7.8
2017-Oct-10 06:30N 34°07' E 135°00'3 5.4
2017-Oct-10 05:59N 34°05' E 135°01'510.4
2017-Oct-10 05:30N 33°59' E 135°00'23315.1
2017-Oct-09 14:05N 34°49' E 139°36'220.2
2017-Oct-09 14:00N 34°50' E 139°37'1020.2
2017-Oct-09 13:30N 35°00' E 139°41'918.5
2017-Oct-09 13:00N 35°09' E 139°45'612.2
2017-Oct-09 12:30N 35°15' E 139°46'612.9
2017-Oct-09 12:00N 35°20' E 139°42'713.1
2017-Oct-09 11:30N 35°26' E 139°46'5 0.4
2017-Oct-08 21:17N 35°29' E 139°51'416.1
2017-Oct-08 21:00N 35°25' E 139°47'612.8
2017-Oct-08 20:30N 35°20' E 139°44'612.1
2017-Oct-08 20:00N 35°14' E 139°47'510.5
2017-Oct-08 19:30N 35°09' E 139°47'4 8.5
2017-Oct-08 19:00N 35°05' E 139°45'4 8.4
2017-Oct-08 18:30N 35°01' E 139°44'3 6.9
2017-Oct-08 18:00N 34°57' E 139°43'612.4
2017-Oct-08 17:29N 34°52' E 139°48'1014.8
2017-Oct-08 16:51N 34°51' E 139°59'617.1
2017-Oct-08 16:30N 34°52' E 140°06'  

Dump ship's entire track history